Time;durP1;ratioP1;P1;durP2;ratioP2;P2;SDS_P1;SDS_P2;PMS_P1;PMS_P2;Temp;Humidity;BMP_temperature;BMP_pressure;BME280_temperature;BME280_humidity;BME280_pressure;Samples;Min_cycle;Max_cycle;Signal;HPM_P1;HPM_P2
2024/02/08 00:02:06;;;;;;;2.13;1.10;;;;;;;;;;5027124;28;20648;-82
2024/02/08 00:04:44;;;;;;;2.67;1.23;;;;;;;;;;5043611;28;20197;-84
2024/02/08 00:07:16;;;;;;;1.87;1.40;;;;;;;;;;5015427;28;20284;-84
2024/02/08 00:09:46;;;;;;;1.57;1.30;;;;;;;;;;5036630;28;20205;-86
2024/02/08 00:12:13;;;;;;;3.03;1.77;;;;;;;;;;5058753;28;20192;-85
2024/02/08 00:14:42;;;;;;;2.27;1.33;;;;;;;;;;5056331;28;20301;-84
2024/02/08 00:17:09;;;;;;;2.80;1.57;;;;;;;;;;5043140;28;20197;-84
2024/02/08 00:19:40;;;;;;;3.30;1.20;;;;;;;;;;5048396;28;20272;-85
2024/02/08 00:22:10;;;;;;;1.70;1.40;;;;;;;;;;5042035;28;20253;-85
2024/02/08 00:24:38;;;;;;;3.63;1.50;;;;;;;;;;5036656;28;20193;-85
2024/02/08 00:27:09;;;;;;;4.37;1.57;;;;;;;;;;5034176;28;20294;-83
2024/02/08 00:29:39;;;;;;;2.30;1.50;;;;;;;;;;5049580;28;20193;-84
2024/02/08 00:32:10;;;;;;;1.87;1.27;;;;;;;;;;5037909;28;20262;-83
2024/02/08 00:34:38;;;;;;;2.83;1.40;;;;;;;;;;5015156;28;20198;-84
2024/02/08 00:37:08;;;;;;;2.03;1.37;;;;;;;;;;5033673;28;20591;-84
2024/02/08 00:39:37;;;;;;;1.90;1.33;;;;;;;;;;5033064;28;20190;-85
2024/02/08 00:42:06;;;;;;;4.30;1.57;;;;;;;;;;5017134;28;20202;-84
2024/02/08 00:44:36;;;;;;;2.03;1.30;;;;;;;;;;5037374;28;20190;-84
2024/02/08 00:47:11;;;;;;;3.50;1.47;;;;;;;;;;5057929;28;20213;-83
2024/02/08 00:49:40;;;;;;;1.50;1.30;;;;;;;;;;5036021;28;20198;-85
2024/02/08 00:52:11;;;;;;;2.20;1.20;;;;;;;;;;5038837;28;20197;-84
2024/02/08 00:54:41;;;;;;;2.10;1.50;;;;;;;;;;5042647;28;20220;-84
2024/02/08 00:57:10;;;;;;;4.47;1.40;;;;;;;;;;5060493;28;20270;-82
2024/02/08 00:59:38;;;;;;;2.50;1.30;;;;;;;;;;5051703;28;20255;-84
2024/02/08 01:02:09;;;;;;;2.63;1.50;;;;;;;;;;5028502;28;20249;-86
2024/02/08 01:04:40;;;;;;;3.27;1.57;;;;;;;;;;5023095;28;20210;-84
2024/02/08 01:07:06;;;;;;;4.60;1.50;;;;;;;;;;5029503;28;20252;-84
2024/02/08 01:09:36;;;;;;;1.90;1.30;;;;;;;;;;5031121;28;20233;-84
2024/02/08 01:12:23;;;;;;;2.63;1.40;;;;;;;;;;5035524;28;20217;-85
2024/02/08 01:14:50;;;;;;;2.30;1.30;;;;;;;;;;5054534;28;20194;-83
2024/02/08 01:17:19;;;;;;;2.80;1.37;;;;;;;;;;5055881;28;20203;-84
2024/02/08 01:19:50;;;;;;;4.80;1.47;;;;;;;;;;5051936;28;20276;-82
2024/02/08 01:22:19;;;;;;;2.10;1.13;;;;;;;;;;5055729;28;20212;-82
2024/02/08 01:24:55;;;;;;;2.50;1.23;;;;;;;;;;5047853;28;20204;-82
2024/02/08 01:27:29;;;;;;;1.50;1.20;;;;;;;;;;5061674;28;20234;-81
2024/02/08 01:29:59;;;;;;;1.70;1.10;;;;;;;;;;5054891;28;20204;-82
2024/02/08 01:32:27;;;;;;;3.13;1.60;;;;;;;;;;5020156;28;20222;-83
2024/02/08 01:34:55;;;;;;;2.13;1.40;;;;;;;;;;5040522;28;20263;-84
2024/02/08 01:37:27;;;;;;;2.63;1.60;;;;;;;;;;5059300;28;20655;-83
2024/02/08 01:39:57;;;;;;;1.77;1.40;;;;;;;;;;5035816;28;20231;-84
2024/02/08 01:42:37;;;;;;;1.60;1.30;;;;;;;;;;5061185;28;20197;-83
2024/02/08 01:45:29;;;;;;;2.37;1.40;;;;;;;;;;5040815;28;20578;-84
2024/02/08 01:48:01;;;;;;;1.20;1.00;;;;;;;;;;5051818;28;20197;-81
2024/02/08 01:50:30;;;;;;;2.10;1.13;;;;;;;;;;5032149;28;20272;-83
2024/02/08 01:52:59;;;;;;;2.53;1.30;;;;;;;;;;5052637;28;20198;-85
2024/02/08 01:55:32;;;;;;;3.17;1.20;;;;;;;;;;5033087;28;20201;-85
2024/02/08 01:58:01;;;;;;;2.20;1.50;;;;;;;;;;5042741;28;20237;-83
2024/02/08 02:00:29;;;;;;;3.13;1.10;;;;;;;;;;5050390;28;20210;-82
2024/02/08 02:03:01;;;;;;;2.77;1.30;;;;;;;;;;5035839;28;20218;-84
2024/02/08 02:05:30;;;;;;;2.00;1.10;;;;;;;;;;5037237;28;20190;-85
2024/02/08 02:07:59;;;;;;;2.23;0.97;;;;;;;;;;5053226;28;20642;-83
2024/02/08 02:10:30;;;;;;;1.60;0.73;;;;;;;;;;5033088;28;20743;-85
2024/02/08 02:12:59;;;;;;;1.27;0.80;;;;;;;;;;5056308;28;20255;-83
2024/02/08 02:15:31;;;;;;;1.27;0.93;;;;;;;;;;5043811;28;20677;-82
2024/02/08 02:18:00;;;;;;;1.10;1.00;;;;;;;;;;5061896;28;20193;-84
2024/02/08 02:20:29;;;;;;;1.80;1.10;;;;;;;;;;5035884;28;20243;-82
2024/02/08 02:22:59;;;;;;;2.27;0.93;;;;;;;;;;5048072;28;20194;-84
2024/02/08 02:25:26;;;;;;;1.13;0.90;;;;;;;;;;5058783;28;20200;-85
2024/02/08 02:27:58;;;;;;;1.17;0.80;;;;;;;;;;5057109;28;20221;-82
2024/02/08 02:30:27;;;;;;;2.00;1.00;;;;;;;;;;5043579;28;20674;-84
2024/02/08 02:32:55;;;;;;;1.60;0.90;;;;;;;;;;5037773;28;20653;-84
2024/02/08 02:35:25;;;;;;;1.03;0.70;;;;;;;;;;5060214;28;20185;-84
2024/02/08 02:37:52;;;;;;;2.63;1.13;;;;;;;;;;5028840;28;20216;-84
2024/02/08 02:40:22;;;;;;;1.27;1.10;;;;;;;;;;5042139;28;20205;-83
2024/02/08 02:42:51;;;;;;;2.23;1.23;;;;;;;;;;5041122;28;20205;-83
2024/02/08 02:45:23;;;;;;;1.70;1.00;;;;;;;;;;5050908;28;20189;-84
2024/02/08 02:47:53;;;;;;;1.63;1.20;;;;;;;;;;5040817;28;20232;-86
2024/02/08 02:50:24;;;;;;;2.17;1.13;;;;;;;;;;5053953;28;20205;-84
2024/02/08 02:52:53;;;;;;;1.43;1.00;;;;;;;;;;5061009;28;20735;-84
2024/02/08 02:55:43;;;;;;;1.53;1.10;;;;;;;;;;5054086;28;20252;-83
2024/02/08 02:58:12;;;;;;;2.10;0.90;;;;;;;;;;5036616;28;20230;-84
2024/02/08 03:00:40;;;;;;;3.17;1.10;;;;;;;;;;5040763;28;20190;-82
2024/02/08 03:03:07;;;;;;;2.27;0.77;;;;;;;;;;5047551;28;20228;-83
2024/02/08 03:05:42;;;;;;;0.70;0.70;;;;;;;;;;5039352;28;20251;-82
2024/02/08 03:08:16;;;;;;;1.57;0.70;;;;;;;;;;5054088;28;20216;-83
2024/02/08 03:10:46;;;;;;;0.67;0.53;;;;;;;;;;5054120;28;20192;-83
2024/02/08 03:13:15;;;;;;;1.73;0.83;;;;;;;;;;5054961;28;20193;-84
2024/02/08 03:15:48;;;;;;;1.30;0.50;;;;;;;;;;5034202;28;20285;-87
2024/02/08 03:18:14;;;;;;;0.87;0.50;;;;;;;;;;5034377;28;20217;-83
2024/02/08 03:20:45;;;;;;;0.70;0.50;;;;;;;;;;5053359;28;20186;-86
2024/02/08 03:23:12;;;;;;;0.53;0.50;;;;;;;;;;5030095;28;20221;-84
2024/02/08 03:25:43;;;;;;;0.80;0.50;;;;;;;;;;5055910;28;20196;-82
2024/02/08 03:28:11;;;;;;;0.93;0.50;;;;;;;;;;5039926;28;20247;-83
2024/02/08 03:30:42;;;;;;;0.50;0.50;;;;;;;;;;5035325;28;20244;-87
2024/02/08 03:33:16;;;;;;;0.37;0.37;;;;;;;;;;5059808;28;20193;-84
2024/02/08 03:35:53;;;;;;;0.43;0.40;;;;;;;;;;5037125;28;20198;-83
2024/02/08 03:38:25;;;;;;;0.60;0.60;;;;;;;;;;5035357;28;20204;-82
2024/02/08 03:40:52;;;;;;;0.40;0.33;;;;;;;;;;5053176;28;20193;-84
2024/02/08 03:43:23;;;;;;;0.80;0.53;;;;;;;;;;5052900;28;20193;-84
2024/02/08 03:45:50;;;;;;;0.50;0.50;;;;;;;;;;5052354;28;20756;-86
2024/02/08 03:48:22;;;;;;;0.73;0.60;;;;;;;;;;5021222;28;20255;-85
2024/02/08 03:50:51;;;;;;;0.60;0.50;;;;;;;;;;5036693;28;20650;-83
2024/02/08 03:53:20;;;;;;;0.50;0.40;;;;;;;;;;5036347;28;20205;-82
2024/02/08 03:55:48;;;;;;;0.70;0.50;;;;;;;;;;5062810;28;20194;-83
2024/02/08 03:58:14;;;;;;;0.93;0.50;;;;;;;;;;5053940;28;20241;-84
2024/02/08 04:00:43;;;;;;;0.80;0.50;;;;;;;;;;5034642;28;20205;-82
2024/02/08 04:03:13;;;;;;;0.93;0.50;;;;;;;;;;5053340;28;20308;-85
2024/02/08 04:06:00;;;;;;;1.10;0.60;;;;;;;;;;5020276;28;20237;-84
2024/02/08 04:55:33;;;;;;;2.00;0.70;;;;;;;;;;5039502;28;20228;-83
2024/02/08 04:58:04;;;;;;;1.47;0.70;;;;;;;;;;5046389;28;20290;-82
2024/02/08 05:00:51;;;;;;;0.90;0.70;;;;;;;;;;5021607;28;20201;-85
2024/02/08 05:03:19;;;;;;;1.87;0.70;;;;;;;;;;5048009;28;20274;-83
2024/02/08 05:05:49;;;;;;;1.10;0.80;;;;;;;;;;5038099;28;20193;-83
2024/02/08 05:08:18;;;;;;;2.20;0.87;;;;;;;;;;5057320;28;20750;-83
2024/02/08 05:10:53;;;;;;;1.20;0.73;;;;;;;;;;5037330;28;20181;-82
2024/02/08 05:13:24;;;;;;;1.00;0.73;;;;;;;;;;5023916;28;20324;-82
2024/02/08 05:15:54;;;;;;;1.50;0.80;;;;;;;;;;5041816;28;20201;-82
2024/02/08 05:18:22;;;;;;;1.23;0.60;;;;;;;;;;5050499;28;20185;-78
2024/02/08 05:20:57;;;;;;;1.57;0.77;;;;;;;;;;5032171;28;20294;-80
2024/02/08 05:23:27;;;;;;;1.47;0.80;;;;;;;;;;5038979;28;20300;-78
2024/02/08 05:25:54;;;;;;;1.87;0.77;;;;;;;;;;5055595;28;20216;-79
2024/02/08 05:28:26;;;;;;;1.20;0.90;;;;;;;;;;5051200;28;20256;-78
2024/02/08 05:30:53;;;;;;;1.73;0.70;;;;;;;;;;5046632;28;20213;-79
2024/02/08 05:33:29;;;;;;;1.50;0.63;;;;;;;;;;5024475;28;20194;-80
2024/02/08 05:35:56;;;;;;;1.20;0.70;;;;;;;;;;5032239;28;20331;-80
2024/02/08 05:38:37;;;;;;;2.43;0.80;;;;;;;;;;5039673;28;20196;-83
2024/02/08 05:41:05;;;;;;;0.70;0.60;;;;;;;;;;5017597;28;20229;-82
2024/02/08 05:43:45;;;;;;;1.10;0.60;;;;;;;;;;5051037;28;20273;-79
2024/02/08 05:46:21;;;;;;;0.70;0.60;;;;;;;;;;5051657;28;20308;-80
2024/02/08 05:49:03;;;;;;;1.23;0.70;;;;;;;;;;5037260;28;20223;-81
2024/02/08 05:51:39;;;;;;;0.67;0.60;;;;;;;;;;5055475;28;20204;-80
2024/02/08 05:54:20;;;;;;;1.33;0.70;;;;;;;;;;5031166;28;20288;-82
2024/02/08 05:56:47;;;;;;;1.77;0.70;;;;;;;;;;5053573;28;20297;-79
2024/02/08 05:59:21;;;;;;;0.83;0.70;;;;;;;;;;5047239;28;20237;-80
2024/02/08 06:01:53;;;;;;;1.47;0.83;;;;;;;;;;5062672;28;20201;-79
2024/02/08 06:04:24;;;;;;;0.80;0.60;;;;;;;;;;5040831;28;20193;-78
2024/02/08 06:07:05;;;;;;;1.33;0.60;;;;;;;;;;5056541;28;20714;-80
2024/02/08 06:09:55;;;;;;;0.70;0.70;;;;;;;;;;5032844;28;20213;-79
2024/02/08 06:12:42;;;;;;;1.63;0.93;;;;;;;;;;5053982;28;20210;-80
2024/02/08 06:15:24;;;;;;;0.90;0.70;;;;;;;;;;5063786;28;20315;-80
2024/02/08 06:18:04;;;;;;;0.90;0.80;;;;;;;;;;5040255;28;20201;-79
2024/02/08 06:20:40;;;;;;;1.27;0.80;;;;;;;;;;5053693;28;20193;-81
2024/02/08 06:23:26;;;;;;;1.83;1.00;;;;;;;;;;5060800;28;20221;-80
2024/02/08 06:28:47;;;;;;;1.13;1.00;;;;;;;;;;5032057;28;20232;-80
2024/02/08 06:31:19;;;;;;;2.10;0.77;;;;;;;;;;5034578;28;20193;-80
2024/02/08 06:36:58;;;;;;;1.53;0.90;;;;;;;;;;5053926;28;20217;-84
2024/02/08 06:39:29;;;;;;;1.20;0.90;;;;;;;;;;5054099;28;20203;-80
2024/02/08 06:42:29;;;;;;;1.77;0.93;;;;;;;;;;5053863;28;20272;-81
2024/02/08 06:48:14;;;;;;;1.63;0.97;;;;;;;;;;5034913;28;20221;-81
2024/02/08 07:38:01;;;;;;;1.53;0.70;;;;;;;;;;5072278;28;20200;-80
2024/02/08 07:40:34;;;;;;;1.20;1.00;;;;;;;;;;5063350;28;20677;-80
2024/02/08 07:45:54;;;;;;;2.37;0.90;;;;;;;;;;5050837;28;20208;-81
2024/02/08 07:48:43;;;;;;;5.20;2.53;;;;;;;;;;5044583;28;20217;-81
2024/02/08 07:51:15;;;;;;;4.27;2.10;;;;;;;;;;5054302;28;20185;-80
2024/02/08 07:53:50;;;;;;;1.43;1.10;;;;;;;;;;5054987;28;20662;-81
2024/02/08 07:56:29;;;;;;;2.23;1.00;;;;;;;;;;5047875;28;20215;-79
2024/02/08 07:59:03;;;;;;;0.73;0.73;;;;;;;;;;5046988;28;20264;-79
2024/02/08 08:01:53;;;;;;;1.03;0.77;;;;;;;;;;5046203;28;20189;-81
2024/02/08 08:07:12;;;;;;;1.13;0.70;;;;;;;;;;5047640;28;20209;-79
2024/02/08 08:09:42;;;;;;;2.90;1.03;;;;;;;;;;5051668;28;20723;-81
2024/02/08 08:12:22;;;;;;;1.93;0.80;;;;;;;;;;5050026;28;20204;-79
2024/02/08 08:17:40;;;;;;;0.87;0.70;;;;;;;;;;5042973;28;20199;-80
2024/02/08 08:20:56;;;;;;;1.80;0.80;;;;;;;;;;5037111;28;20199;-80
2024/02/08 08:23:07;;;;;;;0.80;0.50;;;;;;;;;;5050580;28;20197;-80
2024/02/08 08:28:39;;;;;;;0.67;0.50;;;;;;;;;;5030243;28;20301;-81
2024/02/08 08:31:38;;;;;;;2.47;0.40;;;;;;;;;;5040249;28;20588;-80
2024/02/08 08:42:28;;;;;;;0.50;0.40;;;;;;;;;;5041077;28;20231;-80
2024/02/08 08:44:59;;;;;;;0.47;0.40;;;;;;;;;;5031073;28;20203;-82
2024/02/08 08:47:28;;;;;;;0.87;0.60;;;;;;;;;;5055514;28;20211;-80
2024/02/08 08:49:55;;;;;;;1.10;0.60;;;;;;;;;;5038176;28;20290;-80
2024/02/08 08:52:24;;;;;;;1.23;0.53;;;;;;;;;;5053345;28;20191;-80
2024/02/08 08:55:10;;;;;;;0.73;0.40;;;;;;;;;;5055653;28;20204;-81
2024/02/08 08:57:38;;;;;;;1.03;0.47;;;;;;;;;;5049078;28;20311;-80
2024/02/08 09:00:09;;;;;;;1.40;0.50;;;;;;;;;;5052846;28;20205;-80
2024/02/08 09:02:42;;;;;;;0.80;0.40;;;;;;;;;;5051093;28;20271;-80
2024/02/08 09:05:30;;;;;;;1.07;0.40;;;;;;;;;;5050613;28;20246;-82
2024/02/08 09:08:08;;;;;;;0.70;0.50;;;;;;;;;;5051804;28;20309;-80
2024/02/08 09:10:40;;;;;;;0.30;0.30;;;;;;;;;;5053196;28;20204;-80
2024/02/08 09:13:08;;;;;;;1.67;0.40;;;;;;;;;;5019133;28;20226;-80
2024/02/08 09:18:32;;;;;;;0.40;0.40;;;;;;;;;;5050212;28;20182;-81
2024/02/08 09:21:05;;;;;;;0.20;0.20;;;;;;;;;;5036553;28;20306;-80
2024/02/08 09:23:36;;;;;;;0.50;0.20;;;;;;;;;;5064761;28;20271;-80
2024/02/08 09:26:05;;;;;;;0.10;0.10;;;;;;;;;;5039812;28;20676;-80
2024/02/08 09:28:42;;;;;;;0.20;0.20;;;;;;;;;;5044950;28;20216;-80
2024/02/08 09:31:12;;;;;;;0.30;0.20;;;;;;;;;;5057435;28;20206;-82
2024/02/08 09:34:00;;;;;;;0.20;0.20;;;;;;;;;;5041708;28;20208;-80
2024/02/08 09:36:33;;;;;;;0.40;0.20;;;;;;;;;;5039335;28;20689;-81
2024/02/08 09:39:02;;;;;;;0.30;0.20;;;;;;;;;;5039271;28;20283;-79
2024/02/08 09:41:34;;;;;;;0.30;0.20;;;;;;;;;;5058674;28;20208;-78
2024/02/08 09:44:09;;;;;;;1.90;1.30;;;;;;;;;;5062295;28;20194;-80
2024/02/08 09:46:56;;;;;;;0.60;0.40;;;;;;;;;;5056748;28;20200;-82
2024/02/08 09:49:34;;;;;;;0.63;0.20;;;;;;;;;;5057400;28;20209;-81
2024/02/08 09:52:16;;;;;;;0.10;0.10;;;;;;;;;;5060718;28;20193;-81
2024/02/08 09:54:46;;;;;;;1.20;0.20;;;;;;;;;;5056309;28;20280;-79
2024/02/08 09:57:21;;;;;;;0.30;0.30;;;;;;;;;;5051998;28;20276;-80
2024/02/08 10:00:02;;;;;;;0.53;0.20;;;;;;;;;;5058610;28;20193;-81
2024/02/08 10:02:53;;;;;;;0.30;0.30;;;;;;;;;;5056904;28;20218;-79
2024/02/08 10:05:48;;;;;;;0.10;0.10;;;;;;;;;;5051610;28;20236;-80
2024/02/08 10:08:11;;;;;;;0.10;0.10;;;;;;;;;;5057342;28;20224;-79
2024/02/08 10:10:56;;;;;;;0.20;0.20;;;;;;;;;;5057120;28;20413;-78
2024/02/08 10:13:51;;;;;;;0.43;0.20;;;;;;;;;;5054436;28;20201;-82
2024/02/08 10:16:29;;;;;;;0.10;0.10;;;;;;;;;;5051774;28;20205;-79
2024/02/08 10:19:02;;;;;;;0.63;0.20;;;;;;;;;;5036724;28;20205;-80
2024/02/08 10:21:35;;;;;;;0.17;0.17;;;;;;;;;;5059394;28;20193;-80
2024/02/08 10:24:25;;;;;;;0.03;0.03;;;;;;;;;;5059825;28;20201;-80
2024/02/08 10:26:58;;;;;;;0.10;0.10;;;;;;;;;;5056753;28;20223;-80
2024/02/08 10:29:31;;;;;;;0.13;0.10;;;;;;;;;;5056608;28;20275;-83
2024/02/08 10:31:59;;;;;;;0.20;0.20;;;;;;;;;;5060471;28;20192;-80
2024/02/08 10:34:43;;;;;;;0.10;0.10;;;;;;;;;;5056011;28;20699;-81
2024/02/08 10:37:11;;;;;;;0.10;0.10;;;;;;;;;;5053422;28;20238;-81
2024/02/08 10:39:57;;;;;;;0.27;0.20;;;;;;;;;;5052369;28;20190;-80
2024/02/08 10:42:38;;;;;;;0.40;0.20;;;;;;;;;;5053143;28;20200;-80
2024/02/08 10:45:06;;;;;;;0.70;0.70;;;;;;;;;;5053600;28;20186;-80
2024/02/08 10:47:39;;;;;;;2.63;2.00;;;;;;;;;;5053776;28;20497;-79
2024/02/08 10:50:19;;;;;;;2.33;2.10;;;;;;;;;;5053443;28;20197;-80
2024/02/08 10:52:48;;;;;;;2.90;2.10;;;;;;;;;;5055680;28;20276;-80
2024/02/08 10:55:18;;;;;;;3.30;2.23;;;;;;;;;;5053258;28;20194;-79
2024/02/08 11:01:32;;;;;;;2.60;2.33;;;;;;;;;;5020248;28;20313;-80
2024/02/08 11:04:07;;;;;;;2.63;1.70;;;;;;;;;;5033331;28;20214;-79
2024/02/08 11:06:43;;;;;;;2.83;1.67;;;;;;;;;;5039360;28;20219;-81
2024/02/08 11:09:18;;;;;;;1.70;1.60;;;;;;;;;;5041310;28;20251;-79
2024/02/08 11:11:59;;;;;;;2.27;2.03;;;;;;;;;;5040832;28;20189;-79
2024/02/08 11:14:30;;;;;;;4.10;1.60;;;;;;;;;;5009769;28;20194;-81
2024/02/08 11:17:04;;;;;;;1.60;1.50;;;;;;;;;;5037139;28;20206;-79
2024/02/08 11:19:34;;;;;;;1.00;0.90;;;;;;;;;;5034332;28;20277;-80
2024/02/08 11:22:34;;;;;;;2.93;2.73;;;;;;;;;;5035506;28;20199;-79
2024/02/08 11:25:20;;;;;;;3.03;2.30;;;;;;;;;;5021828;28;20208;-79
2024/02/08 11:27:51;;;;;;;1.70;1.00;;;;;;;;;;5038702;28;20202;-79
2024/02/08 11:30:24;;;;;;;1.17;0.80;;;;;;;;;;5040112;28;20261;-80
2024/02/08 11:32:56;;;;;;;0.80;0.80;;;;;;;;;;5039710;28;20221;-80
2024/02/08 11:35:36;;;;;;;0.97;0.70;;;;;;;;;;5016518;28;20199;-80
2024/02/08 11:38:17;;;;;;;0.50;0.50;;;;;;;;;;5035192;28;20205;-80
2024/02/08 11:40:46;;;;;;;0.63;0.60;;;;;;;;;;5039927;28;20276;-81
2024/02/08 11:43:25;;;;;;;0.70;0.60;;;;;;;;;;5033660;28;20197;-79
2024/02/08 11:45:56;;;;;;;0.67;0.67;;;;;;;;;;5016568;28;20261;-80
2024/02/08 11:48:26;;;;;;;0.50;0.50;;;;;;;;;;5034378;28;20209;-79
2024/02/08 11:50:58;;;;;;;0.87;0.80;;;;;;;;;;5036389;28;20277;-80
2024/02/08 11:53:31;;;;;;;0.40;0.40;;;;;;;;;;5036092;28;20261;-81
2024/02/08 11:56:01;;;;;;;0.30;0.30;;;;;;;;;;5044925;28;20198;-80
2024/02/08 11:58:32;;;;;;;0.10;0.10;;;;;;;;;;5041040;28;20233;-80
2024/02/08 12:01:00;;;;;;;0.40;0.10;;;;;;;;;;5038518;28;20194;-81
2024/02/08 12:03:28;;;;;;;0.20;0.20;;;;;;;;;;5036603;28;20215;-79
2024/02/08 12:05:57;;;;;;;0.13;0.13;;;;;;;;;;5019218;28;20194;-80
2024/02/08 12:08:25;;;;;;;1.30;0.23;;;;;;;;;;5017343;28;20213;-79
2024/02/08 12:11:06;;;;;;;0.40;0.10;;;;;;;;;;5033127;28;20284;-79
2024/02/08 12:13:38;;;;;;;0.30;0.30;;;;;;;;;;5051165;28;20277;-80
2024/02/08 12:16:06;;;;;;;0.10;0.10;;;;;;;;;;5034355;28;20253;-79
2024/02/08 12:18:36;;;;;;;0.10;0.10;;;;;;;;;;5039658;28;20205;-80
2024/02/08 12:21:07;;;;;;;0.57;0.10;;;;;;;;;;5031371;28;20213;-80
2024/02/08 12:23:40;;;;;;;0.27;0.10;;;;;;;;;;5033313;28;20206;-78
2024/02/08 12:26:23;;;;;;;0.10;0.10;;;;;;;;;;5024374;28;20666;-80
2024/02/08 12:28:56;;;;;;;0.10;0.10;;;;;;;;;;5032691;28;20702;-81
2024/02/08 12:31:29;;;;;;;0.10;0.10;;;;;;;;;;5033539;28;20274;-81
2024/02/08 12:33:57;;;;;;;0.13;0.10;;;;;;;;;;5031327;28;20274;-80
2024/02/08 12:36:26;;;;;;;0.10;0.10;;;;;;;;;;5035525;28;20195;-79
2024/02/08 12:38:54;;;;;;;0.00;0.00;;;;;;;;;;5013992;28;20234;-80
2024/02/08 12:41:21;;;;;;;0.10;0.00;;;;;;;;;;5038229;28;20213;-79
2024/02/08 12:43:49;;;;;;;0.20;0.10;;;;;;;;;;5030870;28;20191;-79
2024/02/08 12:46:16;;;;;;;0.10;0.10;;;;;;;;;;5031047;28;20264;-81
2024/02/08 12:48:49;;;;;;;0.20;0.10;;;;;;;;;;5031383;28;20210;-79
2024/02/08 12:51:23;;;;;;;0.20;0.10;;;;;;;;;;5013247;28;20293;-79
2024/02/08 12:53:57;;;;;;;0.10;0.10;;;;;;;;;;4997495;28;20226;-79
2024/02/08 12:56:25;;;;;;;0.10;0.10;;;;;;;;;;5030216;28;20681;-81
2024/02/08 12:59:01;;;;;;;0.10;0.10;;;;;;;;;;5036081;28;20242;-79
2024/02/08 13:01:38;;;;;;;0.10;0.10;;;;;;;;;;5010249;28;20236;-79
2024/02/08 13:04:14;;;;;;;0.10;0.10;;;;;;;;;;5028955;28;20232;-83
2024/02/08 13:06:43;;;;;;;0.53;0.53;;;;;;;;;;5031619;28;20187;-80
2024/02/08 13:09:30;;;;;;;0.67;0.60;;;;;;;;;;5022507;28;20248;-80
2024/02/08 13:12:20;;;;;;;4.10;2.53;;;;;;;;;;5040173;28;20225;-80
2024/02/08 13:14:52;;;;;;;3.10;2.53;;;;;;;;;;5024403;28;20229;-80
2024/02/08 13:17:23;;;;;;;3.10;2.60;;;;;;;;;;5039450;28;20197;-80
2024/02/08 13:19:55;;;;;;;2.97;2.73;;;;;;;;;;5032007;28;20199;-80
2024/02/08 13:22:26;;;;;;;3.73;2.70;;;;;;;;;;5023907;28;20193;-80
2024/02/08 13:24:53;;;;;;;3.27;2.60;;;;;;;;;;5030558;28;20198;-80
2024/02/08 13:27:32;;;;;;;2.80;2.50;;;;;;;;;;5012674;28;20194;-81
2024/02/08 13:30:14;;;;;;;5.53;2.90;;;;;;;;;;5022106;28;20222;-80
2024/02/08 13:32:55;;;;;;;3.60;2.37;;;;;;;;;;5036624;28;20265;-80
2024/02/08 13:35:23;;;;;;;2.13;1.93;;;;;;;;;;5012632;28;20217;-80
2024/02/08 13:38:03;;;;;;;2.93;2.37;;;;;;;;;;5006131;28;20209;-80
2024/02/08 13:40:32;;;;;;;2.73;2.50;;;;;;;;;;5030085;28;20198;-81
2024/02/08 13:43:10;;;;;;;3.43;2.53;;;;;;;;;;5034939;28;20725;-80
2024/02/08 13:45:41;;;;;;;2.80;2.60;;;;;;;;;;5017710;28;20198;-82
2024/02/08 13:48:14;;;;;;;2.50;2.30;;;;;;;;;;5034730;28;20194;-80
2024/02/08 13:50:46;;;;;;;2.80;2.50;;;;;;;;;;5030167;28;20250;-81
2024/02/08 13:53:14;;;;;;;4.03;2.53;;;;;;;;;;5036148;28;20276;-81
2024/02/08 13:55:45;;;;;;;2.67;2.33;;;;;;;;;;5040709;28;20732;-79
2024/02/08 13:58:18;;;;;;;2.10;1.90;;;;;;;;;;5035372;28;20264;-80
2024/02/08 14:00:54;;;;;;;2.40;2.20;;;;;;;;;;5030689;28;20245;-80
2024/02/08 14:03:29;;;;;;;2.50;2.30;;;;;;;;;;5031642;28;20221;-80
2024/02/08 14:06:00;;;;;;;3.47;2.27;;;;;;;;;;5026285;28;20193;-80
2024/02/08 14:08:29;;;;;;;3.17;2.60;;;;;;;;;;5040735;28;20199;-80
2024/02/08 14:10:58;;;;;;;2.80;2.60;;;;;;;;;;5033967;28;20197;-80
2024/02/08 14:13:49;;;;;;;3.13;2.60;;;;;;;;;;5038546;28;20187;-80
2024/02/08 14:16:21;;;;;;;4.50;2.80;;;;;;;;;;5028437;28;20252;-80
2024/02/08 14:18:48;;;;;;;3.33;2.50;;;;;;;;;;5016013;28;20209;-81
2024/02/08 14:21:20;;;;;;;4.73;2.50;;;;;;;;;;5024907;28;20206;-80
2024/02/08 14:23:50;;;;;;;2.63;2.40;;;;;;;;;;5026802;28;20274;-79
2024/02/08 14:29:20;;;;;;;5.43;2.77;;;;;;;;;;5020484;28;20218;-80
2024/02/08 14:31:47;;;;;;;4.50;2.80;;;;;;;;;;5035471;28;20199;-80
2024/02/08 14:34:14;;;;;;;3.37;3.00;;;;;;;;;;5025911;28;20202;-81
2024/02/08 14:36:42;;;;;;;4.13;3.73;;;;;;;;;;5021312;28;20195;-81
2024/02/08 14:39:28;;;;;;;4.53;3.37;;;;;;;;;;5040527;28;20201;-81
2024/02/08 14:41:58;;;;;;;3.60;3.30;;;;;;;;;;5014679;28;20205;-79
2024/02/08 14:44:44;;;;;;;4.60;3.03;;;;;;;;;;5024051;28;20294;-80
2024/02/08 14:47:25;;;;;;;5.27;2.70;;;;;;;;;;5023404;28;20260;-80
2024/02/08 14:49:58;;;;;;;4.27;2.80;;;;;;;;;;5041704;28;20221;-81
2024/02/08 14:52:49;;;;;;;4.43;3.10;;;;;;;;;;5030687;28;20277;-79
2024/02/08 14:55:21;;;;;;;3.40;3.10;;;;;;;;;;5022137;28;20206;-79
2024/02/08 14:57:52;;;;;;;6.47;5.00;;;;;;;;;;5039333;28;20237;-80
2024/02/08 15:03:07;;;;;;;6.87;4.70;;;;;;;;;;5060784;28;20213;-79
2024/02/08 15:05:46;;;;;;;5.07;4.57;;;;;;;;;;5032119;28;20197;-80
2024/02/08 15:11:03;;;;;;;5.13;4.30;;;;;;;;;;5063077;28;20205;-79
2024/02/08 15:13:49;;;;;;;7.17;5.80;;;;;;;;;;5053467;28;20197;-79
2024/02/08 15:16:21;;;;;;;6.17;5.27;;;;;;;;;;5058835;28;20265;-80
2024/02/08 15:18:53;;;;;;;8.27;5.30;;;;;;;;;;5053905;28;20248;-81
2024/02/08 15:21:34;;;;;;;6.03;4.83;;;;;;;;;;5057049;28;20294;-80
2024/02/08 15:26:38;;;;;;;6.20;5.00;;;;;;;;;;5058213;28;20190;-81
2024/02/08 15:29:04;;;;;;;6.17;5.33;;;;;;;;;;5052680;28;20190;-80
2024/02/08 15:31:46;;;;;;;7.23;5.23;;;;;;;;;;5052551;28;20197;-81
2024/02/08 15:36:50;;;;;;;6.33;5.60;;;;;;;;;;5057831;28;20188;-81
2024/02/08 15:42:17;;;;;;;7.50;6.80;;;;;;;;;;5060613;28;20192;-80
2024/02/08 15:44:52;;;;;;;7.53;6.07;;;;;;;;;;5052191;28;20284;-80
2024/02/08 15:47:20;;;;;;;6.40;5.80;;;;;;;;;;5047620;28;20698;-79
2024/02/08 15:49:53;;;;;;;6.27;5.30;;;;;;;;;;5054193;28;20224;-80
2024/02/08 15:52:23;;;;;;;6.03;5.43;;;;;;;;;;5051133;28;20227;-79
2024/02/08 15:54:55;;;;;;;7.70;5.87;;;;;;;;;;5051402;28;20195;-79
2024/02/08 15:57:32;;;;;;;6.53;5.70;;;;;;;;;;5052197;28;20216;-80
2024/02/08 16:00:00;;;;;;;6.17;5.57;;;;;;;;;;5038284;28;20206;-80
2024/02/08 16:02:35;;;;;;;6.70;6.00;;;;;;;;;;5045787;28;20264;-80
2024/02/08 16:05:13;;;;;;;6.57;5.87;;;;;;;;;;5044454;28;20259;-80
2024/02/08 16:07:56;;;;;;;6.30;5.70;;;;;;;;;;5030638;28;20210;-81
2024/02/08 16:10:41;;;;;;;;;;;;;;;;;;;;;
2024/02/08 16:13:08;;;;;;;6.03;5.43;;;;;;;;;;5044879;28;20207;-79
2024/02/08 16:18:24;;;;;;;7.30;6.40;;;;;;;;;;5037360;28;20746;-81
2024/02/08 16:20:55;;;;;;;8.13;7.13;;;;;;;;;;5047165;28;20195;-80
2024/02/08 16:23:43;;;;;;;8.00;7.10;;;;;;;;;;5045856;28;20188;-79
2024/02/08 16:26:15;;;;;;;10.13;6.70;;;;;;;;;;5044279;28;20241;-81
2024/02/08 16:28:49;;;;;;;7.43;6.67;;;;;;;;;;5052585;28;20195;-80
2024/02/08 16:37:30;;;;;;;8.40;7.50;;;;;;;;;;5047217;28;20190;-80
2024/02/08 16:40:07;;;;;;;9.63;7.37;;;;;;;;;;5041531;28;20281;-80
2024/02/08 16:44:35;;;;;;;8.27;7.37;;;;;;;;;;5048505;28;20208;-79
2024/02/08 16:47:26;;;;;;;8.03;7.23;;;;;;;;;;5048400;28;20289;-79
2024/02/08 16:50:16;;;;;;;8.60;6.77;;;;;;;;;;5044332;28;20287;-79
2024/02/08 16:52:46;;;;;;;8.73;6.83;;;;;;;;;;5029600;28;20293;-79
2024/02/08 16:55:21;;;;;;;8.53;7.70;;;;;;;;;;5045081;28;20240;-80
2024/02/08 16:58:00;;;;;;;10.27;8.13;;;;;;;;;;5043241;28;20248;-81
2024/02/08 17:00:47;;;;;;;8.13;7.33;;;;;;;;;;5043629;28;20265;-81
2024/02/08 17:03:50;;;;;;;9.97;8.00;;;;;;;;;;5028928;28;20248;-80
2024/02/08 17:06:18;;;;;;;9.63;8.63;;;;;;;;;;5034475;28;20185;-82
2024/02/08 17:09:00;;;;;;;10.07;8.27;;;;;;;;;;5038820;28;20204;-80
2024/02/08 17:11:33;;;;;;;10.30;8.50;;;;;;;;;;5049102;28;20301;-80
2024/02/08 17:14:03;;;;;;;9.37;8.30;;;;;;;;;;5011273;28;20207;-79
2024/02/08 17:22:08;;;;;;;11.77;10.57;;;;;;;;;;5044378;28;20209;-80
2024/02/08 17:27:18;;;;;;;14.77;12.83;;;;;;;;;;5050893;28;20657;-80
2024/02/08 17:29:51;;;;;;;12.70;11.07;;;;;;;;;;5043592;28;20262;-79
2024/02/08 17:32:24;;;;;;;13.93;11.50;;;;;;;;;;5050969;28;20196;-80
2024/02/08 17:34:52;;;;;;;12.93;11.17;;;;;;;;;;5033248;28;20198;-82
2024/02/08 17:37:30;;;;;;;14.30;11.30;;;;;;;;;;5055681;28;20272;-81
2024/02/08 17:40:16;;;;;;;13.17;11.77;;;;;;;;;;5054252;28;20204;-80
2024/02/08 17:42:58;;;;;;;14.23;12.30;;;;;;;;;;5055894;28;20201;-81
2024/02/08 17:45:46;;;;;;;13.40;11.13;;;;;;;;;;5054298;28;20217;-81
2024/02/08 17:48:23;;;;;;;12.90;11.03;;;;;;;;;;5037822;28;20654;-80
2024/02/08 17:50:52;;;;;;;21.27;18.73;;;;;;;;;;5053968;28;20212;-79
2024/02/08 17:53:24;;;;;;;15.40;13.80;;;;;;;;;;5054766;28;20200;-82
2024/02/08 17:55:55;;;;;;;15.00;13.43;;;;;;;;;;5034305;28;20205;-81
2024/02/08 17:58:24;;;;;;;13.30;10.90;;;;;;;;;;5054110;28;20603;-82
2024/02/08 18:00:51;;;;;;;11.93;9.87;;;;;;;;;;5014902;28;20681;-81
2024/02/08 18:03:25;;;;;;;10.97;9.43;;;;;;;;;;5018018;28;20209;-80
2024/02/08 18:05:56;;;;;;;12.07;9.77;;;;;;;;;;5013736;28;20217;-80
2024/02/08 18:08:26;;;;;;;13.00;10.87;;;;;;;;;;5017745;28;20198;-78